Time;durP1;ratioP1;P1;durP2;ratioP2;P2;SDS_P1;SDS_P2;PMS_P1;PMS_P2;Temp;Humidity;BMP_temperature;BMP_pressure;BME280_temperature;BME280_humidity;BME280_pressure;Samples;Min_cycle;Max_cycle;Signal;HPM_P1;HPM_P2
2023/06/06 00:00:10;;;;;;;3.23;2.93;;;20.40;66.70;;;;;;5043168;28;20466;-63
2023/06/06 00:02:43;;;;;;;3.03;2.70;;;20.40;66.70;;;;;;5046364;28;20530;-63
2023/06/06 00:05:13;;;;;;;3.20;2.90;;;20.40;66.80;;;;;;5036973;28;20466;-62
2023/06/06 00:07:46;;;;;;;2.80;2.60;;;20.30;66.80;;;;;;5037028;28;20545;-62
2023/06/06 00:10:17;;;;;;;2.90;2.67;;;20.30;66.90;;;;;;5039534;28;20467;-62
2023/06/06 00:12:49;;;;;;;3.00;2.80;;;20.20;67.20;;;;;;5033692;28;20440;-62
2023/06/06 00:15:21;;;;;;;2.97;2.63;;;20.20;67.20;;;;;;5031002;28;20864;-62
2023/06/06 00:17:55;;;;;;;3.60;3.30;;;20.20;67.20;;;;;;5032963;28;20435;-62
2023/06/06 00:20:32;;;;;;;3.23;2.90;;;20.20;67.20;;;;;;5032746;28;20463;-63
2023/06/06 00:23:02;;;;;;;3.30;3.00;;;20.20;67.10;;;;;;5043679;28;20478;-63
2023/06/06 00:25:31;;;;;;;3.10;2.90;;;20.20;67.20;;;;;;5036951;28;20479;-62
2023/06/06 00:27:59;;;;;;;3.40;3.10;;;20.20;67.10;;;;;;5033323;28;20487;-62
2023/06/06 00:30:29;;;;;;;4.63;4.23;;;20.20;67.20;;;;;;5031083;28;20455;-62
2023/06/06 00:32:59;;;;;;;3.07;2.87;;;20.20;67.30;;;;;;5031354;28;20446;-62
2023/06/06 00:35:40;;;;;;;3.23;2.93;;;20.20;67.30;;;;;;5032664;28;20774;-62
2023/06/06 00:38:10;;;;;;;2.97;2.77;;;20.10;67.30;;;;;;5051440;28;20446;-63
2023/06/06 00:40:40;;;;;;;2.93;2.73;;;20.10;67.40;;;;;;5041278;28;20454;-62
2023/06/06 00:43:14;;;;;;;2.77;2.57;;;20.10;67.50;;;;;;5033059;28;20462;-62
2023/06/06 00:45:50;;;;;;;2.90;2.70;;;20.10;67.40;;;;;;5035425;28;20522;-62
2023/06/06 00:48:20;;;;;;;2.97;2.70;;;20.10;67.30;;;;;;5035686;28;20885;-62
2023/06/06 00:50:55;;;;;;;3.03;2.80;;;20.10;67.40;;;;;;5030446;28;20483;-62
2023/06/06 00:53:26;;;;;;;3.00;2.80;;;20.10;67.40;;;;;;5037728;28;20514;-62
2023/06/06 00:55:57;;;;;;;2.97;2.63;;;20.00;67.60;;;;;;5032592;28;20478;-62
2023/06/06 00:58:28;;;;;;;3.00;2.80;;;19.90;68.00;;;;;;5031542;28;20466;-63
2023/06/06 01:01:02;;;;;;;3.30;3.00;;;19.90;68.10;;;;;;5030650;28;20466;-62
2023/06/06 01:03:31;;;;;;;3.10;2.80;;;19.80;68.10;;;;;;5033635;28;20454;-64
2023/06/06 01:06:03;;;;;;;3.47;3.17;;;19.70;68.30;;;;;;5032587;28;20505;-63
2023/06/06 01:08:33;;;;;;;3.73;3.50;;;19.60;68.50;;;;;;5043683;28;20461;-63
2023/06/06 01:11:11;;;;;;;3.03;2.83;;;19.60;68.70;;;;;;5030908;28;20454;-62
2023/06/06 01:13:54;;;;;;;3.07;2.87;;;19.60;68.60;;;;;;5025231;28;20442;-62
2023/06/06 01:16:33;;;;;;;3.17;2.97;;;19.60;68.70;;;;;;5035848;28;20450;-62
2023/06/06 01:19:04;;;;;;;3.30;3.00;;;19.50;68.80;;;;;;5031637;28;20431;-61
2023/06/06 01:21:41;;;;;;;3.67;3.10;;;19.50;68.70;;;;;;5020789;28;20483;-62
2023/06/06 01:24:12;;;;;;;3.57;3.30;;;19.50;68.70;;;;;;5030496;28;20952;-63
2023/06/06 01:26:41;;;;;;;3.33;3.03;;;19.50;68.60;;;;;;5051166;28;20474;-62
2023/06/06 01:29:13;;;;;;;3.47;3.17;;;19.60;68.40;;;;;;5044844;28;20497;-62
2023/06/06 01:31:51;;;;;;;3.63;3.03;;;19.50;68.40;;;;;;5030086;28;20491;-62
2023/06/06 01:34:28;;;;;;;5.27;3.70;;;19.50;68.40;;;;;;5032257;28;20464;-63
2023/06/06 01:37:08;;;;;;;3.00;2.80;;;19.50;68.30;;;;;;5012232;28;20443;-62
2023/06/06 01:39:39;;;;;;;3.93;3.07;;;19.60;68.30;;;;;;5028889;28;20771;-62
2023/06/06 01:42:09;;;;;;;3.37;3.10;;;19.60;68.10;;;;;;5030416;28;20460;-63
2023/06/06 01:44:40;;;;;;;3.23;2.93;;;19.50;68.20;;;;;;5032864;28;20462;-63
2023/06/06 01:47:10;;;;;;;3.63;3.33;;;19.50;68.40;;;;;;5032878;28;20905;-64
2023/06/06 01:49:39;;;;;;;2.90;2.70;;;19.40;68.50;;;;;;5031566;28;20893;-62
2023/06/06 01:52:09;;;;;;;3.50;3.20;;;19.30;68.70;;;;;;5037137;28;20467;-62
2023/06/06 01:54:40;;;;;;;3.23;3.00;;;19.20;68.90;;;;;;5034359;28;20807;-62
2023/06/06 01:57:09;;;;;;;3.80;3.13;;;19.20;69.00;;;;;;5031458;28;20920;-62
2023/06/06 01:59:38;;;;;;;3.70;3.40;;;19.10;69.10;;;;;;5028608;28;20959;-62
2023/06/06 02:02:07;;;;;;;4.20;3.10;;;19.10;69.30;;;;;;5033228;28;20456;-62
2023/06/06 02:04:37;;;;;;;3.50;3.20;;;19.10;69.60;;;;;;5029141;28;20449;-63
2023/06/06 02:07:08;;;;;;;3.57;3.37;;;19.00;69.70;;;;;;5031350;28;20465;-62
2023/06/06 02:09:45;;;;;;;3.50;3.20;;;19.00;69.90;;;;;;5029526;28;20479;-62
2023/06/06 02:12:23;;;;;;;3.70;3.40;;;19.00;69.90;;;;;;5031604;28;20440;-62
2023/06/06 02:14:55;;;;;;;4.00;3.70;;;19.00;69.80;;;;;;5032360;28;20453;-62
2023/06/06 02:17:29;;;;;;;3.40;3.20;;;19.00;69.80;;;;;;5048957;28;20582;-62
2023/06/06 02:19:58;;;;;;;2.97;2.77;;;19.20;69.20;;;;;;5044053;28;20509;-62
2023/06/06 02:22:30;;;;;;;3.63;3.33;;;19.20;68.80;;;;;;5044379;28;20460;-62
2023/06/06 02:24:59;;;;;;;4.00;3.70;;;19.10;68.60;;;;;;5041145;28;20459;-62
2023/06/06 02:27:29;;;;;;;2.97;2.77;;;18.80;69.20;;;;;;5036883;28;20528;-62
2023/06/06 02:29:58;;;;;;;3.97;3.00;;;18.60;69.60;;;;;;5034473;28;20512;-61
2023/06/06 02:32:31;;;;;;;3.70;3.40;;;18.60;69.70;;;;;;5035062;28;20486;-62
2023/06/06 02:35:05;;;;;;;3.77;3.47;;;18.40;69.90;;;;;;5034111;28;20467;-62
2023/06/06 02:37:36;;;;;;;3.17;2.90;;;18.40;69.90;;;;;;5034044;28;20464;-62
2023/06/06 02:40:11;;;;;;;3.67;3.20;;;18.30;70.40;;;;;;5032586;28;20464;-62
2023/06/06 02:42:49;;;;;;;3.20;2.97;;;18.20;70.90;;;;;;5034839;28;20464;-62
2023/06/06 02:45:22;;;;;;;3.70;3.30;;;18.20;70.90;;;;;;5043103;28;20459;-62
2023/06/06 02:48:00;;;;;;;3.53;3.33;;;18.30;70.80;;;;;;5053651;28;20475;-62
2023/06/06 02:50:31;;;;;;;2.97;2.77;;;18.40;70.50;;;;;;5042116;28;20490;-61
2023/06/06 02:53:25;;;;;;;3.13;2.93;;;18.30;70.50;;;;;;5028635;28;20452;-62
2023/06/06 02:55:54;;;;;;;3.57;3.10;;;18.30;70.50;;;;;;5053225;28;20455;-62
2023/06/06 02:58:29;;;;;;;3.47;2.97;;;18.30;70.40;;;;;;5053825;28;20451;-62
2023/06/06 03:01:03;;;;;;;3.63;3.30;;;18.30;70.40;;;;;;5034838;28;20456;-62
2023/06/06 03:03:37;;;;;;;3.40;3.20;;;18.30;70.40;;;;;;5044320;28;20463;-62
2023/06/06 03:06:24;;;;;;;3.13;2.93;;;18.30;70.40;;;;;;5052191;28;20463;-62
2023/06/06 03:08:58;;;;;;;3.60;3.30;;;18.30;70.30;;;;;;5026522;28;20500;-62
2023/06/06 03:11:26;;;;;;;3.80;3.50;;;18.30;70.40;;;;;;5031447;28;20871;-62
2023/06/06 03:14:02;;;;;;;3.60;3.30;;;18.30;70.50;;;;;;5045862;28;20810;-63
2023/06/06 03:16:35;;;;;;;3.17;2.87;;;18.30;70.50;;;;;;5046927;28;20459;-62
2023/06/06 03:19:10;;;;;;;3.67;3.37;;;18.20;70.20;;;;;;5048037;28;20460;-63
2023/06/06 03:21:38;;;;;;;3.73;3.43;;;18.20;70.00;;;;;;5013386;28;20508;-63
2023/06/06 03:24:11;;;;;;;4.03;3.23;;;18.10;69.70;;;;;;5029695;28;20490;-62
2023/06/06 03:26:46;;;;;;;3.27;3.07;;;18.00;70.10;;;;;;5032263;28;20463;-62
2023/06/06 03:29:19;;;;;;;3.40;3.10;;;17.90;70.70;;;;;;5029847;28;20492;-63
2023/06/06 03:31:49;;;;;;;4.47;3.90;;;17.80;71.00;;;;;;5033166;28;20967;-62
2023/06/06 03:34:20;;;;;;;6.23;4.07;;;17.70;71.00;;;;;;5032713;28;20440;-62
2023/06/06 03:36:52;;;;;;;4.30;3.97;;;17.60;71.20;;;;;;5049548;28;20482;-62
2023/06/06 03:39:22;;;;;;;4.23;3.93;;;17.60;71.60;;;;;;5033236;28;21259;-62
2023/06/06 03:41:51;;;;;;;5.40;4.90;;;17.40;72.50;;;;;;5032744;28;20546;-62
2023/06/06 03:44:19;;;;;;;4.17;3.77;;;17.20;73.10;;;;;;5025569;28;20460;-62
2023/06/06 03:46:47;;;;;;;3.87;3.30;;;17.10;73.20;;;;;;5033403;28;20476;-62
2023/06/06 03:49:15;;;;;;;4.10;3.70;;;17.10;73.60;;;;;;5035557;28;20475;-63
2023/06/06 03:51:47;;;;;;;4.17;3.43;;;17.00;73.70;;;;;;5038525;28;21030;-62
2023/06/06 03:54:15;;;;;;;3.97;3.67;;;17.10;73.40;;;;;;5032548;28;20461;-61
2023/06/06 03:56:45;;;;;;;3.97;3.67;;;17.30;72.80;;;;;;5040282;28;20447;-62
2023/06/06 03:59:15;;;;;;;4.83;4.43;;;17.50;72.30;;;;;;5045131;28;20486;-62
2023/06/06 04:01:44;;;;;;;7.43;3.90;;;17.60;71.90;;;;;;5033673;28;20500;-62
2023/06/06 04:04:15;;;;;;;4.37;4.03;;;17.60;71.60;;;;;;5046390;28;20505;-62
2023/06/06 04:06:46;;;;;;;5.17;4.10;;;17.70;71.30;;;;;;5030111;28;20444;-62
2023/06/06 04:09:16;;;;;;;4.20;3.80;;;17.90;71.00;;;;;;5032478;28;20471;-62
2023/06/06 04:11:49;;;;;;;4.50;4.10;;;18.10;70.50;;;;;;5026014;28;20455;-62
2023/06/06 04:14:17;;;;;;;4.20;3.80;;;18.30;70.00;;;;;;5035284;28;20459;-62
2023/06/06 04:16:46;;;;;;;5.43;4.70;;;18.50;69.60;;;;;;5026260;28;21030;-62
2023/06/06 04:19:18;;;;;;;5.50;4.27;;;18.60;69.30;;;;;;5036309;28;20514;-63
2023/06/06 04:21:47;;;;;;;4.40;4.00;;;18.70;69.00;;;;;;5024204;28;20459;-64
2023/06/06 04:24:16;;;;;;;4.37;4.03;;;18.70;68.90;;;;;;5032234;28;20471;-63
2023/06/06 04:26:46;;;;;;;4.30;3.90;;;18.70;69.00;;;;;;5048766;28;20948;-62
2023/06/06 04:29:16;;;;;;;4.73;4.10;;;18.70;69.10;;;;;;5030232;28;20989;-64
2023/06/06 04:31:45;;;;;;;4.50;4.20;;;18.60;69.10;;;;;;5035806;28;20469;-63
2023/06/06 04:34:17;;;;;;;4.77;4.37;;;18.50;69.40;;;;;;5035467;28;20543;-62
2023/06/06 04:36:51;;;;;;;4.60;4.20;;;18.40;69.90;;;;;;5035525;28;20467;-63
2023/06/06 04:39:24;;;;;;;4.63;4.23;;;18.20;70.40;;;;;;5030454;28;20464;-63
2023/06/06 04:41:57;;;;;;;4.30;3.90;;;17.90;71.20;;;;;;5040972;28;20517;-63
2023/06/06 04:44:28;;;;;;;3.97;3.63;;;17.60;72.20;;;;;;5035535;28;20974;-62
2023/06/06 04:47:03;;;;;;;5.20;3.73;;;17.60;72.40;;;;;;5041521;28;20452;-63
2023/06/06 04:49:43;;;;;;;5.17;4.67;;;17.70;72.00;;;;;;5034559;28;20541;-64
2023/06/06 04:52:14;;;;;;;4.53;4.10;;;17.70;72.40;;;;;;5031753;28;20467;-63
2023/06/06 04:54:45;;;;;;;5.17;4.67;;;17.70;72.50;;;;;;5039976;28;20517;-62
2023/06/06 04:57:19;;;;;;;5.07;4.67;;;17.80;72.20;;;;;;5044318;28;20498;-62
2023/06/06 04:59:54;;;;;;;4.67;4.27;;;17.90;72.10;;;;;;5042388;28;20845;-62
2023/06/06 05:02:29;;;;;;;4.80;4.40;;;18.00;72.10;;;;;;5024730;28;20467;-63
2023/06/06 05:04:59;;;;;;;5.33;4.87;;;18.10;72.00;;;;;;5014777;28;20429;-63
2023/06/06 05:07:30;;;;;;;5.93;4.57;;;18.00;72.10;;;;;;5041182;28;20464;-63
2023/06/06 05:10:00;;;;;;;6.60;5.00;;;18.00;72.20;;;;;;5034644;28;20484;-64
2023/06/06 05:12:29;;;;;;;4.77;4.37;;;18.00;73.10;;;;;;5034397;28;21031;-62
2023/06/06 05:15:05;;;;;;;5.27;4.80;;;17.90;73.40;;;;;;5031250;28;20536;-62
2023/06/06 05:17:34;;;;;;;5.33;4.93;;;17.90;73.80;;;;;;5046802;28;20542;-62
2023/06/06 05:20:16;;;;;;;5.57;5.07;;;18.00;73.60;;;;;;5033679;28;20452;-62
2023/06/06 05:22:47;;;;;;;4.70;4.30;;;18.10;73.00;;;;;;5037799;28;20464;-63
2023/06/06 05:25:22;;;;;;;5.33;4.63;;;18.20;72.40;;;;;;5023887;28;20789;-64
2023/06/06 05:27:55;;;;;;;5.30;4.90;;;18.50;72.30;;;;;;5035064;28;20512;-64
2023/06/06 05:30:29;;;;;;;5.67;4.73;;;18.60;72.00;;;;;;5031571;28;20456;-64
2023/06/06 05:33:19;;;;;;;6.37;3.70;;;18.70;71.70;;;;;;5037102;28;20533;-63
2023/06/06 05:35:55;;;;;;;4.30;3.90;;;19.00;71.00;;;;;;5030300;28;20958;-64
2023/06/06 05:38:25;;;;;;;4.63;3.90;;;19.50;70.60;;;;;;5026687;28;20511;-64
2023/06/06 05:40:54;;;;;;;9.53;4.07;;;20.00;69.10;;;;;;5024391;28;20896;-63
2023/06/06 05:43:22;;;;;;;7.90;4.97;;;20.40;67.90;;;;;;5032648;28;20854;-63
2023/06/06 05:45:53;;;;;;;5.23;3.90;;;20.80;68.00;;;;;;5031817;28;20555;-64
2023/06/06 05:48:21;;;;;;;8.53;4.83;;;21.20;68.00;;;;;;5020193;28;20464;-63
2023/06/06 05:50:49;;;;;;;10.27;4.60;;;21.40;66.60;;;;;;5028944;28;20532;-64
2023/06/06 05:53:26;;;;;;;6.20;4.27;;;21.70;66.30;;;;;;5025487;28;20861;-63
2023/06/06 05:55:57;;;;;;;3.63;3.40;;;22.00;66.80;;;;;;5026624;28;20458;-63
2023/06/06 05:58:25;;;;;;;4.40;4.00;;;22.30;65.30;;;;;;5022074;28;20459;-64
2023/06/06 06:00:55;;;;;;;5.77;3.80;;;22.50;63.90;;;;;;5026045;28;20456;-63
2023/06/06 06:03:24;;;;;;;3.70;3.40;;;22.80;63.00;;;;;;5017886;28;20488;-63
2023/06/06 06:05:52;;;;;;;4.50;4.10;;;22.90;62.40;;;;;;5032536;28;20495;-63
2023/06/06 06:08:21;;;;;;;4.10;3.80;;;23.10;62.00;;;;;;5022096;28;20468;-64
2023/06/06 06:10:49;;;;;;;4.13;3.83;;;23.20;61.70;;;;;;5026289;28;20465;-64
2023/06/06 06:13:17;;;;;;;6.33;3.80;;;23.30;61.30;;;;;;5028950;28;20482;-63
2023/06/06 06:15:45;;;;;;;3.40;3.20;;;23.40;60.80;;;;;;5030641;28;20459;-63
2023/06/06 06:18:15;;;;;;;4.27;3.90;;;23.50;60.60;;;;;;5026694;28;20464;-64
2023/06/06 06:20:43;;;;;;;4.47;3.83;;;23.50;60.40;;;;;;5032699;28;20452;-63
2023/06/06 06:23:15;;;;;;;4.60;4.20;;;23.60;60.40;;;;;;5028071;28;20533;-64
2023/06/06 06:25:44;;;;;;;4.20;3.90;;;23.60;60.30;;;;;;5032775;28;20454;-64
2023/06/06 06:28:20;;;;;;;3.90;3.60;;;23.60;60.10;;;;;;5031673;28;20543;-63
2023/06/06 06:30:51;;;;;;;3.63;3.33;;;23.60;60.20;;;;;;5030393;28;20468;-64
2023/06/06 06:33:25;;;;;;;7.40;3.97;;;23.60;60.10;;;;;;5023327;28;20853;-63
2023/06/06 06:35:53;;;;;;;4.87;4.47;;;23.60;60.00;;;;;;5024311;28;20441;-64
2023/06/06 06:38:24;;;;;;;4.03;3.73;;;23.70;59.90;;;;;;5031082;28;20432;-63
2023/06/06 06:40:54;;;;;;;4.00;3.70;;;23.70;59.90;;;;;;5016082;28;20518;-64
2023/06/06 06:43:22;;;;;;;4.77;3.70;;;23.70;59.80;;;;;;5022162;28;20469;-64
2023/06/06 06:45:59;;;;;;;4.00;3.70;;;23.70;59.80;;;;;;5022586;28;21352;-63
2023/06/06 06:48:29;;;;;;;4.17;3.77;;;23.80;59.70;;;;;;5022338;28;21485;-63
2023/06/06 06:50:57;;;;;;;3.47;3.17;;;23.90;59.70;;;;;;5025383;28;20512;-64
2023/06/06 06:53:30;;;;;;;5.73;3.80;;;23.90;59.40;;;;;;5027951;28;21001;-64
2023/06/06 06:55:59;;;;;;;4.40;4.00;;;24.00;59.50;;;;;;5027320;28;20462;-64
2023/06/06 06:58:33;;;;;;;4.33;3.93;;;24.00;59.50;;;;;;5028031;28;20494;-63
2023/06/06 07:01:03;;;;;;;4.60;3.43;;;24.00;59.40;;;;;;5027690;28;20464;-64
2023/06/06 07:03:35;;;;;;;3.60;3.40;;;24.10;59.20;;;;;;5028383;28;20474;-63
2023/06/06 07:06:07;;;;;;;3.70;3.40;;;24.10;59.10;;;;;;5028525;28;20466;-63
2023/06/06 07:08:39;;;;;;;4.00;3.70;;;24.10;59.20;;;;;;5042121;28;20468;-63
2023/06/06 07:11:08;;;;;;;4.47;4.13;;;24.00;59.30;;;;;;5029536;28;20481;-63
2023/06/06 07:13:38;;;;;;;3.87;3.60;;;24.10;59.30;;;;;;5031329;28;20453;-63
2023/06/06 07:16:08;;;;;;;3.67;3.47;;;24.10;59.20;;;;;;5028671;28;20465;-63
2023/06/06 07:18:44;;;;;;;4.17;3.80;;;24.10;59.10;;;;;;5030551;28;20453;-64
2023/06/06 07:21:12;;;;;;;4.40;3.57;;;24.10;59.20;;;;;;5029658;28;20469;-64
2023/06/06 07:23:41;;;;;;;3.80;3.50;;;24.10;59.10;;;;;;5028481;28;20476;-64
2023/06/06 07:26:10;;;;;;;4.33;4.03;;;24.10;59.10;;;;;;5026434;28;20470;-64
2023/06/06 07:28:38;;;;;;;4.22;3.83;;;24.10;59.10;;;;;;5025268;28;20763;-68
2023/06/06 07:31:10;;;;;;;4.13;3.83;;;24.20;59.00;;;;;;5023480;28;20212;-68
2023/06/06 07:33:44;;;;;;;3.73;3.43;;;24.20;59.10;;;;;;5030721;28;20466;-68
2023/06/06 07:36:13;;;;;;;3.97;3.60;;;24.30;59.00;;;;;;5032733;28;20574;-68
2023/06/06 07:38:41;;;;;;;3.90;3.37;;;24.30;58.90;;;;;;5030065;28;20472;-67
2023/06/06 07:41:09;;;;;;;3.40;3.10;;;24.30;59.00;;;;;;5032008;28;20463;-68
2023/06/06 07:43:38;;;;;;;4.20;3.90;;;24.40;58.90;;;;;;5034243;28;20489;-69
2023/06/06 07:46:06;;;;;;;3.63;3.33;;;24.40;58.80;;;;;;5029657;28;20461;-68
2023/06/06 07:48:35;;;;;;;4.07;3.73;;;24.40;58.80;;;;;;5031234;28;20460;-70
2023/06/06 07:51:06;;;;;;;4.00;3.70;;;24.40;58.70;;;;;;5030195;28;20866;-69
2023/06/06 07:53:34;;;;;;;3.93;3.63;;;24.40;58.40;;;;;;5028529;28;20457;-68
2023/06/06 07:56:03;;;;;;;5.20;3.77;;;24.40;58.50;;;;;;5030498;28;20474;-69
2023/06/06 07:58:40;;;;;;;4.03;3.73;;;24.50;58.70;;;;;;5032215;28;20451;-69
2023/06/06 08:01:08;;;;;;;6.70;3.97;;;24.50;58.60;;;;;;5029601;28;20519;-69
2023/06/06 08:03:44;;;;;;;3.77;3.57;;;24.50;58.50;;;;;;5032980;28;20453;-69
2023/06/06 08:06:14;;;;;;;4.23;3.83;;;24.60;58.50;;;;;;5031819;28;20462;-70
2023/06/06 08:08:43;;;;;;;4.40;4.07;;;24.60;58.50;;;;;;5038542;28;20496;-69
2023/06/06 08:11:11;;;;;;;3.73;3.47;;;24.60;58.50;;;;;;5040883;28;20984;-68
2023/06/06 08:13:39;;;;;;;4.00;3.70;;;24.60;58.50;;;;;;5031668;28;20474;-68
2023/06/06 08:16:07;;;;;;;4.40;4.00;;;24.60;58.40;;;;;;5038748;28;20462;-69
2023/06/06 08:18:38;;;;;;;4.07;3.67;;;24.60;58.40;;;;;;5035760;28;20473;-68
2023/06/06 08:21:07;;;;;;;3.87;3.57;;;24.70;58.20;;;;;;5040525;28;20462;-69
2023/06/06 08:23:37;;;;;;;4.17;3.87;;;24.60;58.40;;;;;;5027011;28;20537;-69
2023/06/06 08:26:05;;;;;;;3.60;3.30;;;24.70;58.30;;;;;;5038165;28;20454;-68
2023/06/06 08:28:34;;;;;;;4.43;4.03;;;24.70;58.20;;;;;;5033786;28;20545;-69
2023/06/06 08:31:03;;;;;;;3.80;3.57;;;24.70;58.10;;;;;;5037857;28;20480;-69
2023/06/06 08:33:32;;;;;;;4.10;3.80;;;24.70;58.00;;;;;;5042132;28;20470;-69
2023/06/06 08:36:00;;;;;;;4.90;4.23;;;24.70;58.10;;;;;;5032672;28;20550;-68
2023/06/06 08:38:31;;;;;;;6.70;4.60;;;24.70;58.10;;;;;;5029014;28;20483;-69
2023/06/06 08:41:02;;;;;;;4.33;4.03;;;24.80;58.00;;;;;;5031593;28;21336;-69
2023/06/06 08:43:36;;;;;;;4.67;4.17;;;24.80;57.80;;;;;;5021452;28;20467;-69
2023/06/06 08:46:05;;;;;;;6.30;4.47;;;24.60;56.70;;;;;;5027413;28;20494;-69
2023/06/06 08:48:35;;;;;;;9.47;4.27;;;24.60;58.00;;;;;;5035884;28;20520;-69
2023/06/06 08:51:05;;;;;;;7.63;4.50;;;24.60;58.10;;;;;;5027345;28;20482;-69
2023/06/06 08:53:35;;;;;;;6.70;4.40;;;24.70;58.10;;;;;;5033349;28;20466;-69
2023/06/06 08:56:11;;;;;;;4.47;4.07;;;24.70;58.10;;;;;;5035855;28;20888;-69
2023/06/06 08:58:44;;;;;;;3.93;3.50;;;24.80;57.20;;;;;;5025534;28;20459;-68
2023/06/06 09:01:14;;;;;;;4.00;3.57;;;24.80;57.80;;;;;;5019603;28;21534;-69
2023/06/06 09:03:43;;;;;;;20.43;7.13;;;24.80;57.80;;;;;;5033542;28;20495;-70
2023/06/06 09:06:13;;;;;;;5.40;4.73;;;24.80;57.70;;;;;;5031113;28;20450;-68
2023/06/06 09:08:53;;;;;;;7.13;4.07;;;24.90;57.60;;;;;;5032002;28;20451;-68
2023/06/06 09:11:23;;;;;;;6.53;4.20;;;24.90;57.60;;;;;;5034446;28;20991;-70
2023/06/06 09:13:58;;;;;;;5.17;4.23;;;24.90;57.50;;;;;;5032927;28;21132;-69
2023/06/06 09:16:27;;;;;;;4.70;4.33;;;24.90;56.90;;;;;;5036111;28;20454;-70
2023/06/06 09:18:58;;;;;;;10.53;5.73;;;24.80;56.40;;;;;;5030544;28;20543;-69
2023/06/06 09:21:29;;;;;;;5.30;4.63;;;24.70;57.70;;;;;;5033150;28;20494;-70
2023/06/06 09:23:59;;;;;;;6.80;4.47;;;24.80;57.70;;;;;;5034595;28;20467;-68
2023/06/06 09:26:33;;;;;;;6.40;4.60;;;24.80;57.70;;;;;;5035736;28;20475;-69
2023/06/06 09:29:08;;;;;;;6.17;4.47;;;24.90;57.40;;;;;;5032103;28;20896;-69
2023/06/06 09:31:38;;;;;;;6.03;4.77;;;25.00;57.30;;;;;;5029443;28;20470;-69
2023/06/06 09:34:08;;;;;;;4.30;3.90;;;25.00;57.20;;;;;;5024783;28;20454;-69
2023/06/06 09:36:41;;;;;;;6.97;4.73;;;25.00;57.10;;;;;;5028480;28;20464;-68
2023/06/06 09:39:11;;;;;;;4.63;4.23;;;25.10;55.50;;;;;;5029544;28;20458;-69
2023/06/06 09:41:45;;;;;;;5.07;4.57;;;25.00;55.70;;;;;;5026285;28;20470;-70
2023/06/06 09:44:19;;;;;;;5.13;4.63;;;25.00;57.10;;;;;;5030720;28;20458;-68
2023/06/06 09:46:48;;;;;;;3.97;3.50;;;25.00;56.90;;;;;;5043425;28;20501;-67
2023/06/06 09:49:17;;;;;;;3.50;3.23;;;25.00;54.90;;;;;;5040410;28;20467;-67
2023/06/06 09:51:46;;;;;;;7.13;4.70;;;25.00;55.20;;;;;;5034090;28;20490;-68
2023/06/06 09:54:21;;;;;;;5.00;4.60;;;25.00;56.60;;;;;;5036469;28;20525;-67
2023/06/06 09:56:52;;;;;;;6.53;5.00;;;25.00;56.50;;;;;;5034477;28;20461;-66
2023/06/06 09:59:24;;;;;;;5.80;4.33;;;25.00;56.40;;;;;;5033078;28;20542;-67
2023/06/06 10:01:58;;;;;;;5.97;5.37;;;25.10;56.20;;;;;;5038060;28;20754;-67
2023/06/06 10:04:33;;;;;;;4.93;4.33;;;25.10;56.00;;;;;;5041294;28;20449;-67
2023/06/06 10:07:05;;;;;;;5.13;3.80;;;25.20;56.20;;;;;;5054689;28;21109;-67
2023/06/06 10:09:34;;;;;;;4.97;3.90;;;25.20;56.20;;;;;;5039715;28;20818;-67
2023/06/06 10:12:04;;;;;;;5.33;4.37;;;25.20;56.00;;;;;;5036422;28;20601;-67
2023/06/06 10:14:33;;;;;;;4.80;4.40;;;25.30;56.10;;;;;;5030526;28;20502;-68
2023/06/06 10:17:02;;;;;;;4.10;3.80;;;25.20;55.00;;;;;;5032313;28;20487;-66
2023/06/06 10:19:33;;;;;;;4.37;3.97;;;25.20;54.90;;;;;;5024407;28;20459;-67
2023/06/06 10:22:02;;;;;;;6.37;4.53;;;25.20;55.50;;;;;;5030306;28;20546;-68
2023/06/06 10:24:31;;;;;;;4.30;4.00;;;25.20;55.10;;;;;;5039552;28;20458;-68
2023/06/06 10:27:07;;;;;;;5.10;3.93;;;25.20;54.50;;;;;;5038051;28;20966;-68
2023/06/06 10:29:45;;;;;;;4.80;4.40;;;25.20;53.60;;;;;;5029466;28;20491;-68
2023/06/06 10:32:26;;;;;;;4.73;4.30;;;25.20;54.50;;;;;;5038774;28;20478;-68
2023/06/06 10:34:56;;;;;;;4.73;4.30;;;25.20;54.40;;;;;;5037125;28;20465;-68
2023/06/06 10:37:25;;;;;;;4.20;3.80;;;25.30;54.60;;;;;;5031230;28;20891;-68
2023/06/06 10:40:04;;;;;;;4.80;4.40;;;25.30;54.60;;;;;;5043828;28;20462;-68
2023/06/06 10:42:38;;;;;;;4.70;4.30;;;25.30;54.80;;;;;;5037554;28;20459;-68
2023/06/06 10:45:07;;;;;;;4.20;3.70;;;25.30;54.80;;;;;;5032243;28;20454;-67
2023/06/06 10:47:39;;;;;;;4.50;4.17;;;25.40;54.40;;;;;;5037407;28;20501;-66
2023/06/06 10:50:22;;;;;;;9.10;4.30;;;25.40;53.10;;;;;;5038639;28;20466;-66
2023/06/06 10:52:52;;;;;;;4.67;4.27;;;25.40;53.80;;;;;;5033024;28;20590;-67
2023/06/06 10:55:40;;;;;;;4.50;4.10;;;25.40;54.50;;;;;;5034961;28;20459;-68
2023/06/06 10:58:19;;;;;;;4.90;4.40;;;25.40;52.90;;;;;;5040148;28;20463;-67
2023/06/06 11:00:49;;;;;;;5.57;5.17;;;25.40;54.00;;;;;;5046653;28;20448;-67
2023/06/06 11:03:21;;;;;;;5.13;4.13;;;25.40;53.60;;;;;;5031543;28;20839;-68
2023/06/06 11:06:16;;;;;;;4.53;4.13;;;25.40;54.10;;;;;;5041382;28;20454;-67
2023/06/06 11:08:47;;;;;;;4.63;4.23;;;25.40;54.00;;;;;;5034421;28;20458;-67
2023/06/06 11:11:25;;;;;;;3.97;3.63;;;25.50;53.10;;;;;;5029748;28;20462;-67
2023/06/06 11:13:57;;;;;;;4.50;4.10;;;25.50;53.90;;;;;;5034335;28;20525;-67
2023/06/06 11:16:58;;;;;;;3.73;3.43;;;25.50;54.00;;;;;;5044267;28;20474;-67
2023/06/06 11:19:37;;;;;;;4.13;3.83;;;25.50;53.90;;;;;;5035828;28;20459;-66
2023/06/06 11:22:06;;;;;;;4.37;4.07;;;25.50;54.00;;;;;;5029381;28;20478;-67
2023/06/06 11:24:36;;;;;;;5.50;4.10;;;25.50;53.90;;;;;;5029707;28;20492;-67
2023/06/06 11:27:06;;;;;;;4.67;4.27;;;25.50;54.00;;;;;;5036435;28;20475;-69
2023/06/06 11:29:40;;;;;;;5.80;4.00;;;25.50;53.70;;;;;;5021150;28;20452;-65
2023/06/06 11:32:11;;;;;;;5.10;4.20;;;25.50;53.60;;;;;;5043264;28;20525;-66
2023/06/06 11:34:40;;;;;;;9.03;4.50;;;25.40;53.90;;;;;;5033350;28;20457;-68
2023/06/06 11:37:09;;;;;;;4.33;4.03;;;25.40;53.60;;;;;;5035929;28;20461;-65
2023/06/06 11:39:37;;;;;;;6.20;4.50;;;25.50;53.60;;;;;;5034777;28;20453;-65
2023/06/06 11:42:07;;;;;;;4.53;4.13;;;25.50;52.70;;;;;;5027906;28;20551;-68
2023/06/06 11:44:37;;;;;;;5.27;4.80;;;25.50;53.00;;;;;;5020566;28;20515;-68
2023/06/06 11:47:08;;;;;;;5.73;5.17;;;25.50;52.80;;;;;;5028766;28;20474;-67
2023/06/06 11:49:45;;;;;;;7.90;4.97;;;25.50;53.20;;;;;;5028784;28;20461;-67
2023/06/06 11:52:15;;;;;;;7.43;5.63;;;25.50;52.90;;;;;;5030081;28;22018;-67
2023/06/06 11:54:57;;;;;;;6.47;5.83;;;25.50;53.00;;;;;;5027413;28;21093;-67
2023/06/06 11:57:25;;;;;;;5.63;5.13;;;25.50;53.10;;;;;;5029416;28;20459;-70
2023/06/06 11:59:55;;;;;;;10.27;6.60;;;25.50;52.10;;;;;;5027528;28;20452;-69
2023/06/06 12:02:25;;;;;;;6.20;5.70;;;25.60;52.90;;;;;;5033055;28;20460;-67
2023/06/06 12:04:53;;;;;;;7.03;6.43;;;25.70;53.00;;;;;;5022605;28;20521;-67
2023/06/06 12:07:23;;;;;;;12.10;7.40;;;25.70;53.10;;;;;;5027212;28;20461;-67
2023/06/06 12:09:59;;;;;;;6.03;5.47;;;25.80;52.90;;;;;;5029286;28;21573;-67
2023/06/06 12:12:28;;;;;;;5.23;4.70;;;25.90;52.80;;;;;;5025450;28;20472;-68
2023/06/06 12:14:57;;;;;;;6.80;5.70;;;26.00;52.10;;;;;;5026471;28;20446;-67
2023/06/06 12:17:28;;;;;;;5.50;5.00;;;26.20;52.20;;;;;;5022388;28;20516;-68
2023/06/06 12:19:57;;;;;;;9.00;6.50;;;26.40;51.80;;;;;;5026800;28;20477;-67
2023/06/06 12:22:30;;;;;;;9.27;5.83;;;26.50;51.90;;;;;;5021450;28;20462;-68
2023/06/06 12:24:58;;;;;;;5.80;4.40;;;26.60;51.90;;;;;;5024881;28;20540;-69
2023/06/06 12:27:27;;;;;;;6.20;5.30;;;26.70;51.40;;;;;;5024197;28;21017;-67
2023/06/06 12:29:57;;;;;;;5.53;4.93;;;26.60;51.80;;;;;;5021712;28;20490;-69
2023/06/06 12:32:29;;;;;;;5.30;4.53;;;26.70;51.50;;;;;;5031536;28;20500;-68
2023/06/06 12:35:02;;;;;;;6.83;5.33;;;26.70;51.60;;;;;;5030197;28;20511;-68
2023/06/06 12:37:39;;;;;;;5.83;5.30;;;26.70;51.40;;;;;;5025394;28;20516;-68
2023/06/06 12:40:18;;;;;;;5.83;5.27;;;26.70;51.60;;;;;;5028462;28;20469;-67
2023/06/06 12:42:53;;;;;;;6.47;4.90;;;26.80;50.80;;;;;;5025799;28;20450;-69
2023/06/06 12:45:22;;;;;;;6.30;4.77;;;26.80;51.10;;;;;;5019501;28;21039;-69
2023/06/06 12:47:54;;;;;;;6.27;5.70;;;26.70;51.00;;;;;;5029745;28;20464;-67
2023/06/06 12:50:24;;;;;;;5.50;4.63;;;26.70;51.20;;;;;;5032205;28;20472;-67
2023/06/06 12:52:53;;;;;;;4.90;4.50;;;26.80;50.50;;;;;;5030305;28;20478;-70
2023/06/06 12:55:21;;;;;;;6.00;5.27;;;26.80;50.60;;;;;;5031939;28;20461;-70
2023/06/06 12:57:49;;;;;;;4.73;4.23;;;26.80;50.50;;;;;;5029019;28;20884;-71
2023/06/06 13:00:19;;;;;;;3.83;3.57;;;26.80;50.40;;;;;;5029900;28;20564;-68
2023/06/06 13:02:49;;;;;;;5.03;4.53;;;26.70;50.10;;;;;;5029522;28;20456;-67
2023/06/06 13:05:19;;;;;;;5.00;4.50;;;26.70;50.30;;;;;;5034721;28;20543;-69
2023/06/06 13:07:48;;;;;;;8.33;4.47;;;26.70;50.50;;;;;;5032141;28;20464;-67